createdAt,value
2023-03-28T00:04:03.330Z,4.10
2023-03-28T00:09:07.261Z,4.47
2023-03-28T00:14:09.361Z,1.63
2023-03-28T00:19:14.393Z,2.95
2023-03-28T00:24:21.491Z,2.45
2023-03-28T00:29:26.208Z,2.40
2023-03-28T00:34:28.251Z,3.72
2023-03-28T00:39:32.169Z,2.92
2023-03-28T00:44:43.849Z,2.72
2023-03-28T00:49:49.537Z,2.17
2023-03-28T00:54:54.026Z,4.25
2023-03-28T00:59:56.107Z,3.30
2023-03-28T01:05:03.767Z,5.55
2023-03-28T01:10:09.198Z,3.40
2023-03-28T01:15:11.643Z,2.40
2023-03-28T01:20:30.093Z,4.85
2023-03-28T01:25:53.733Z,6.43
2023-03-28T01:31:31.862Z,5.13
2023-03-28T01:37:05.592Z,2.63
2023-03-28T01:42:14.786Z,2.65
2023-03-28T01:47:25.122Z,5.30
2023-03-28T01:52:36.174Z,4.97
2023-03-28T01:57:41.242Z,3.70
2023-03-28T02:02:49.422Z,4.07
2023-03-28T02:07:54.615Z,2.72
2023-03-28T02:12:59.712Z,3.83
2023-03-28T02:18:06.981Z,3.58
2023-03-28T02:23:15.613Z,5.15
2023-03-28T02:28:19.313Z,3.33
2023-03-28T02:33:38.062Z,1.50
2023-03-28T02:38:52.561Z,6.53
2023-03-28T02:44:08.465Z,4.10
2023-03-28T02:49:22.872Z,4.85
2023-03-28T02:54:34.430Z,5.18
2023-03-28T02:59:42.545Z,4.13
2023-03-28T03:04:45.192Z,5.45
2023-03-28T03:09:53.561Z,3.17
2023-03-28T03:14:55.608Z,2.63
2023-03-28T03:19:57.578Z,2.80
2023-03-28T03:25:06.555Z,2.80
2023-03-28T03:30:10.083Z,2.08
2023-03-28T03:35:12.649Z,2.78
2023-03-28T03:40:17.196Z,1.38
2023-03-28T03:45:19.268Z,3.50
2023-03-28T03:50:21.284Z,3.22
2023-03-28T03:55:26.545Z,2.13
2023-03-28T04:00:28.650Z,1.90
2023-03-28T04:05:30.924Z,2.20
2023-03-28T04:10:34.383Z,1.88
2023-03-28T04:15:36.332Z,2.33
2023-03-28T04:20:40.359Z,1.80
2023-03-28T04:25:43.921Z,1.23
2023-03-28T04:30:45.904Z,1.92
2023-03-28T04:35:51.204Z,2.58
2023-03-28T04:40:57.735Z,1.70
2023-03-28T04:46:00.867Z,1.42
2023-03-28T04:51:03.653Z,2.10
2023-03-28T04:56:08.856Z,2.05
2023-03-28T05:01:10.863Z,1.50
2023-03-28T05:06:12.864Z,2.08
2023-03-28T05:11:16.176Z,1.65
2023-03-28T05:16:18.230Z,2.53
2023-03-28T05:22:50.838Z,2.40
2023-03-28T05:27:52.845Z,3.13
2023-03-28T05:32:55.018Z,2.13
2023-03-28T05:37:58.460Z,2.67
2023-03-28T05:43:00.893Z,1.52
2023-03-28T05:48:03.539Z,1.83
2023-03-28T05:53:06.992Z,1.63
2023-03-28T05:58:09.024Z,2.70
2023-03-28T06:03:16.725Z,1.15
2023-03-28T06:08:20.852Z,2.45
2023-03-28T06:13:22.812Z,2.65
2023-03-28T06:18:24.922Z,2.25
2023-03-28T06:23:28.490Z,4.07
2023-03-28T06:28:30.465Z,3.60
2023-03-28T06:33:32.519Z,3.05
2023-03-28T06:38:36.036Z,5.55
2023-03-28T06:43:38.054Z,4.93
2023-03-28T06:48:40.285Z,3.72
2023-03-28T06:53:43.596Z,4.45
2023-03-28T06:58:45.751Z,2.30
2023-03-28T07:03:49.912Z,4.38
2023-03-28T07:08:56.268Z,5.47
2023-03-28T07:13:58.376Z,3.45
2023-03-28T07:19:00.539Z,3.72
2023-03-28T07:24:04.335Z,3.20
2023-03-28T07:29:06.645Z,4.80
2023-03-28T07:34:08.688Z,4.03
2023-03-28T07:39:12.275Z,3.08
2023-03-28T07:44:14.264Z,2.45
2023-03-28T07:49:16.413Z,2.35
2023-03-28T07:54:19.715Z,4.90
2023-03-28T07:59:21.729Z,5.90
2023-03-28T08:04:23.747Z,2.58
2023-03-28T08:09:27.987Z,5.85
2023-03-28T08:14:30.318Z,3.50
2023-03-28T08:19:32.319Z,5.07
2023-03-28T08:24:36.560Z,2.63
2023-03-28T08:34:40.581Z,3.17
2023-03-28T08:39:44.012Z,2.40
2023-03-28T08:45:08.943Z,3.85
2023-03-28T08:50:16.264Z,2.92
2023-03-28T08:55:30.674Z,3.25
2023-03-28T09:00:37.002Z,3.00
2023-03-28T09:05:46.313Z,5.03
2023-03-28T09:10:57.883Z,2.42
2023-03-28T09:16:15.167Z,1.88
2023-03-28T09:21:27.944Z,3.85
2023-03-28T09:26:35.919Z,2.08
2023-03-28T09:31:41.496Z,1.55
2023-03-28T09:40:29.063Z,1.77
2023-03-28T09:45:43.359Z,1.80
2023-03-28T09:50:45.500Z,2.28
2023-03-28T09:56:03.448Z,2.50
2023-03-28T10:01:23.044Z,3.15
2023-03-28T10:07:29.342Z,4.60
2023-03-28T10:13:36.861Z,2.47
2023-03-28T10:18:41.389Z,4.30
2023-03-28T10:23:50.552Z,5.10
2023-03-28T10:28:57.960Z,5.78
2023-03-28T10:34:02.732Z,4.60
2023-03-28T10:39:21.226Z,6.15
2023-03-28T10:44:30.311Z,3.15
2023-03-28T10:49:42.646Z,2.75
2023-03-28T10:54:56.905Z,2.45
2023-03-28T11:00:10.345Z,2.80
2023-03-28T11:05:24.175Z,3.10
2023-03-28T11:10:35.603Z,3.15
2023-03-28T11:15:44.714Z,2.83
2023-03-28T11:20:55.967Z,3.65
2023-03-28T11:26:04.145Z,2.78
2023-03-28T11:31:14.625Z,2.58
2023-03-28T11:36:23.166Z,2.35
2023-03-28T11:41:31.208Z,2.65
2023-03-28T11:46:38.476Z,3.47
2023-03-28T11:51:46.688Z,5.07
2023-03-28T11:57:54.305Z,3.97
2023-03-28T12:04:03.079Z,2.35
2023-03-28T12:09:19.224Z,4.85
2023-03-28T12:14:30.303Z,2.28
2023-03-28T12:20:37.750Z,5.70
2023-03-28T12:26:50.302Z,3.67
2023-03-28T12:31:57.456Z,3.80
2023-03-28T12:38:09.548Z,4.97
2023-03-28T12:44:13.367Z,4.22
2023-03-28T12:49:22.495Z,3.85
2023-03-28T12:54:28.786Z,5.40
2023-03-28T12:59:51.463Z,7.30
2023-03-28T13:05:29.654Z,7.05
2023-03-28T13:11:43.978Z,3.63
2023-03-28T13:16:52.635Z,4.82
2023-03-28T13:21:57.439Z,7.18
2023-03-28T13:27:07.996Z,4.55
2023-03-28T13:32:13.646Z,2.40
2023-03-28T13:37:23.132Z,3.65
2023-03-28T13:42:56.716Z,6.78
2023-03-28T13:49:01.417Z,4.25
2023-03-28T13:54:03.692Z,3.15
2023-03-28T13:59:12.924Z,2.70
2023-03-28T14:04:18.899Z,5.85
2023-03-28T14:10:29.282Z,5.82
2023-03-28T14:15:36.242Z,9.60
2023-03-28T14:21:36.967Z,3.80
2023-03-28T14:27:38.432Z,7.53
2023-03-28T14:32:57.391Z,5.57
2023-03-28T14:38:01.200Z,8.55
2023-03-28T14:43:05.308Z,5.43
2023-03-28T14:48:14.060Z,5.50
2023-03-28T14:54:20.589Z,5.90
2023-03-28T14:59:31.097Z,3.85
2023-03-28T15:09:37.033Z,7.97
2023-03-28T15:14:42.531Z,3.30
2023-03-28T15:19:49.143Z,4.45
2023-03-28T15:24:51.570Z,6.72
2023-03-28T15:29:54.371Z,6.88
2023-03-28T15:35:01.984Z,10.60
2023-03-28T15:40:22.906Z,3.58
2023-03-28T15:45:37.498Z,4.63
2023-03-28T15:50:50.947Z,8.48
2023-03-28T15:56:51.871Z,3.47
2023-03-28T16:03:30.425Z,2.70
2023-03-28T16:08:50.441Z,3.35
2023-03-28T16:13:52.764Z,12.25
2023-03-28T16:18:55.668Z,8.88
2023-03-28T16:23:58.959Z,8.93
2023-03-28T16:29:01.073Z,6.85
2023-03-28T16:34:03.139Z,7.43
2023-03-28T16:39:07.974Z,5.13
2023-03-28T16:44:10.404Z,9.32
2023-03-28T16:49:39.281Z,8.20
2023-03-28T16:54:44.133Z,8.45
2023-03-28T16:59:46.823Z,8.30
2023-03-28T17:04:50.937Z,6.13
2023-03-28T17:14:57.107Z,10.32
2023-03-28T17:20:00.259Z,9.52
2023-03-28T17:25:04.463Z,5.85
2023-03-28T17:31:05.295Z,11.10
2023-03-28T17:36:21.539Z,7.53
2023-03-28T17:41:27.910Z,7.55
2023-03-28T17:46:30.143Z,7.53
2023-03-28T17:51:32.423Z,9.20
2023-03-28T17:56:35.873Z,6.32
2023-03-28T18:01:38.438Z,7.80
2023-03-28T18:06:41.054Z,14.48
2023-03-28T18:11:44.423Z,11.95
2023-03-28T18:16:46.818Z,11.35
2023-03-28T18:21:49.501Z,11.57
2023-03-28T18:26:53.265Z,5.75
2023-03-28T18:31:55.365Z,13.35
2023-03-28T18:37:00.115Z,7.60
2023-03-28T18:42:04.204Z,9.27
2023-03-28T18:47:07.066Z,7.25
2023-03-28T18:52:10.600Z,5.97
2023-03-28T18:57:32.622Z,6.00
2023-03-28T19:02:34.696Z,4.32
2023-03-28T19:07:45.900Z,9.95
2023-03-28T19:12:54.167Z,4.47
2023-03-28T19:17:57.190Z,4.32
2023-03-28T19:23:31.989Z,4.85
2023-03-28T19:29:33.988Z,5.18
2023-03-28T19:34:39.759Z,7.03
2023-03-28T19:40:40.487Z,4.05
2023-03-28T19:46:42.419Z,3.70
2023-03-28T19:52:43.184Z,2.03
2023-03-28T19:58:18.272Z,3.03
2023-03-28T20:04:20.936Z,3.00
2023-03-28T20:10:20.969Z,3.78
2023-03-28T20:16:21.542Z,4.57
2023-03-28T20:22:12.733Z,2.25
2023-03-28T20:28:14.195Z,2.97
2023-03-28T20:33:16.531Z,2.75
2023-03-28T20:38:20.048Z,3.45
2023-03-28T20:43:40.561Z,1.98
2023-03-28T20:48:46.382Z,3.75
2023-03-28T20:53:51.594Z,4.05
2023-03-28T20:58:53.793Z,2.22
2023-03-28T21:03:59.786Z,2.33
2023-03-28T21:09:05.479Z,3.38
2023-03-28T21:14:10.885Z,2.85
2023-03-28T21:19:13.153Z,3.13
2023-03-28T21:24:17.782Z,2.25
2023-03-28T21:29:19.921Z,2.72
2023-03-28T21:34:30.483Z,1.60
2023-03-28T21:39:33.922Z,1.08
2023-03-28T21:44:36.190Z,1.35
2023-03-28T21:49:38.164Z,2.13
2023-03-28T21:54:41.460Z,3.25
2023-03-28T21:59:44.769Z,3.15
2023-03-28T22:04:48.438Z,0.57
2023-03-28T22:09:51.757Z,1.65
2023-03-28T22:14:53.846Z,1.27
2023-03-28T22:19:56.086Z,0.85
2023-03-28T22:25:00.356Z,1.55
2023-03-28T22:30:02.419Z,1.27
2023-03-28T22:35:05.911Z,1.40
2023-03-28T22:40:11.023Z,1.08
2023-03-28T22:45:13.033Z,0.52
2023-03-28T22:50:15.650Z,1.52
2023-03-28T22:55:22.295Z,0.55
2023-03-28T23:00:24.709Z,0.40
2023-03-28T23:05:27.902Z,0.73
2023-03-28T23:10:31.962Z,0.47
2023-03-28T23:15:34.224Z,1.20
2023-03-28T23:20:37.314Z,0.50
2023-03-28T23:25:40.663Z,0.05
2023-03-28T23:30:42.624Z,1.63
2023-03-28T23:35:45.500Z,0.50
2023-03-28T23:40:48.849Z,0.28
2023-03-28T23:45:50.830Z,0.65
2023-03-28T23:50:52.815Z,0.15
2023-03-28T23:55:56.118Z,0.50
